createdAt,value
2023-01-30T00:01:15.970Z,98752.59
2023-01-30T00:03:42.627Z,98746.28
2023-01-30T00:06:09.961Z,98747.50
2023-01-30T00:08:36.638Z,98746.28
2023-01-30T00:11:05.391Z,98748.00
2023-01-30T00:13:32.010Z,98744.00
2023-01-30T00:15:58.678Z,98750.03
2023-01-30T00:18:25.610Z,98750.41
2023-01-30T00:21:00.144Z,98752.06
2023-01-30T00:23:28.132Z,98747.59
2023-01-30T00:25:55.675Z,98747.94
2023-01-30T00:28:22.665Z,98746.63
2023-01-30T00:30:50.686Z,98752.28
2023-01-30T00:33:18.073Z,98740.78
2023-01-30T00:35:46.880Z,98748.75
2023-01-30T00:38:14.092Z,98738.56
2023-01-30T00:40:41.249Z,98737.22
2023-01-30T00:43:26.364Z,98731.69
2023-01-30T00:46:12.660Z,98728.59
2023-01-30T00:48:39.230Z,98739.66
2023-01-30T00:51:05.841Z,98740.09
2023-01-30T00:53:32.498Z,98737.06
2023-01-30T00:55:59.343Z,98737.28
2023-01-30T00:58:26.214Z,98738.63
2023-01-30T01:00:53.303Z,98739.03
2023-01-30T01:03:20.458Z,98728.16
2023-01-30T01:05:47.557Z,98730.06
2023-01-30T01:08:14.785Z,98731.69
2023-01-30T01:10:41.662Z,98724.91
2023-01-30T01:13:08.287Z,98722.78
2023-01-30T01:15:35.122Z,98728.09
2023-01-30T01:18:01.724Z,98717.69
2023-01-30T01:20:28.737Z,98720.44
2023-01-30T01:22:56.955Z,98718.56
2023-01-30T01:25:24.568Z,98716.38
2023-01-30T01:27:51.389Z,98719.03
2023-01-30T01:30:18.685Z,98711.78
2023-01-30T01:32:45.281Z,98706.75
2023-01-30T01:35:12.018Z,98706.75
2023-01-30T01:37:38.634Z,98711.72
2023-01-30T01:40:25.089Z,98709.41
2023-01-30T01:42:52.079Z,98704.47
2023-01-30T01:45:25.039Z,98699.44
2023-01-30T01:48:20.871Z,98699.28
2023-01-30T01:50:54.923Z,98693.50
2023-01-30T01:53:28.412Z,98693.25
2023-01-30T01:55:59.411Z,98680.50
2023-01-30T01:58:34.319Z,98680.06
2023-01-30T02:01:01.440Z,98682.38
2023-01-30T02:03:32.711Z,98679.09
2023-01-30T02:06:02.690Z,98678.97
2023-01-30T02:08:37.812Z,98675.47
2023-01-30T02:11:16.879Z,98676.56
2023-01-30T02:13:45.473Z,98676.66
2023-01-30T02:16:12.142Z,98681.25
2023-01-30T02:18:41.990Z,98678.50
2023-01-30T02:21:30.315Z,98680.41
2023-01-30T02:24:30.030Z,98678.94
2023-01-30T02:27:08.742Z,98681.16
2023-01-30T02:30:06.303Z,98666.16
2023-01-30T02:33:11.578Z,98666.41
2023-01-30T02:35:43.050Z,98663.25
2023-01-30T02:38:25.510Z,98656.72
2023-01-30T02:40:55.095Z,98663.38
2023-01-30T02:43:33.499Z,98653.19
2023-01-30T02:46:12.059Z,98646.38
2023-01-30T02:48:47.813Z,98637.59
2023-01-30T02:51:21.013Z,98639.47
2023-01-30T02:53:48.708Z,98642.34
2023-01-30T02:56:15.617Z,98638.50
2023-01-30T02:58:48.245Z,98645.91
2023-01-30T03:01:42.580Z,98647.94
2023-01-30T03:04:09.202Z,98651.56
2023-01-30T03:07:12.494Z,98649.19
2023-01-30T03:09:57.653Z,98651.06
2023-01-30T03:12:37.573Z,98653.97
2023-01-30T03:15:10.039Z,98645.50
2023-01-30T03:17:37.802Z,98653.69
2023-01-30T03:20:05.161Z,98645.72
2023-01-30T03:22:31.747Z,98643.41
2023-01-30T03:24:58.398Z,98643.31
2023-01-30T03:27:25.106Z,98645.00
2023-01-30T03:29:51.691Z,98648.75
2023-01-30T03:32:18.314Z,98642.50
2023-01-30T03:34:44.903Z,98649.03
2023-01-30T03:37:11.577Z,98646.03
2023-01-30T03:39:38.283Z,98646.19
2023-01-30T03:42:05.035Z,98639.41
2023-01-30T03:44:31.617Z,98641.22
2023-01-30T03:46:58.187Z,98641.50
2023-01-30T03:49:24.775Z,98637.88
2023-01-30T03:51:51.420Z,98639.19
2023-01-30T03:54:18.031Z,98640.38
2023-01-30T03:56:44.631Z,98640.84
2023-01-30T03:59:11.333Z,98641.81
2023-01-30T04:01:37.964Z,98642.91
2023-01-30T04:04:04.759Z,98635.88
2023-01-30T04:06:31.390Z,98641.19
2023-01-30T04:08:58.030Z,98638.19
2023-01-30T04:11:24.631Z,98634.06
2023-01-30T04:13:51.423Z,98630.22
2023-01-30T04:16:19.609Z,98628.63
2023-01-30T04:18:46.317Z,98633.22
2023-01-30T04:21:13.334Z,98628.03
2023-01-30T04:23:40.413Z,98620.41
2023-01-30T04:26:07.726Z,98629.63
2023-01-30T04:28:34.946Z,98629.81
2023-01-30T04:31:02.194Z,98629.88
2023-01-30T04:33:29.009Z,98633.72
2023-01-30T04:35:57.905Z,98624.78
2023-01-30T04:38:26.139Z,98635.19
2023-01-30T04:40:54.559Z,98630.34
2023-01-30T04:43:22.454Z,98635.75
2023-01-30T04:45:50.676Z,98632.03
2023-01-30T04:48:18.781Z,98617.47
2023-01-30T04:50:49.145Z,98629.97
2023-01-30T04:53:16.934Z,98633.34
2023-01-30T04:55:43.703Z,98635.13
2023-01-30T04:58:10.369Z,98628.03
2023-01-30T05:00:37.421Z,98632.00
2023-01-30T05:03:04.647Z,98631.91
2023-01-30T05:05:31.205Z,98620.41
2023-01-30T05:07:57.870Z,98629.09
2023-01-30T05:10:24.484Z,98625.97
2023-01-30T05:12:51.127Z,98628.41
2023-01-30T05:15:18.042Z,98628.41
2023-01-30T05:17:44.880Z,98626.25
2023-01-30T05:20:13.770Z,98643.16
2023-01-30T05:22:40.411Z,98640.25
2023-01-30T05:25:07.503Z,98631.06
2023-01-30T05:27:34.125Z,98631.56
2023-01-30T05:30:00.754Z,98625.25
2023-01-30T05:32:30.460Z,98645.41
2023-01-30T05:34:57.490Z,98632.28
2023-01-30T05:37:24.641Z,98630.34
2023-01-30T05:39:51.340Z,98629.97
2023-01-30T05:42:18.063Z,98626.09
2023-01-30T05:44:44.646Z,98633.50
2023-01-30T05:47:11.217Z,98634.09
2023-01-30T05:49:37.873Z,98635.63
2023-01-30T05:52:04.596Z,98627.66
2023-01-30T05:54:31.247Z,98643.84
2023-01-30T05:56:57.897Z,98646.38
2023-01-30T05:59:24.452Z,98649.88
2023-01-30T06:01:51.113Z,98657.56
2023-01-30T06:04:17.759Z,98644.19
2023-01-30T06:06:44.359Z,98655.44
2023-01-30T06:09:11.531Z,98651.56
2023-01-30T06:11:38.221Z,98655.94
2023-01-30T06:14:04.855Z,98646.75
2023-01-30T06:16:31.509Z,98654.47
2023-01-30T06:18:58.232Z,98649.66
2023-01-30T06:21:24.865Z,98654.00
2023-01-30T06:23:51.488Z,98654.00
2023-01-30T06:26:18.115Z,98657.13
2023-01-30T06:28:44.749Z,98651.69
2023-01-30T06:31:11.724Z,98659.53
2023-01-30T06:33:38.420Z,98667.00
2023-01-30T06:36:05.254Z,98660.13
2023-01-30T06:38:31.841Z,98638.50
2023-01-30T06:40:58.393Z,98648.66
2023-01-30T06:43:25.004Z,98646.22
2023-01-30T06:45:51.686Z,98659.03
2023-01-30T06:48:18.323Z,98650.13
2023-01-30T06:50:46.670Z,98644.19
2023-01-30T06:53:13.256Z,98646.84
2023-01-30T06:55:39.792Z,98643.94
2023-01-30T06:58:10.685Z,98644.56
2023-01-30T07:00:40.121Z,98651.81
2023-01-30T07:03:11.266Z,98634.59
2023-01-30T07:05:42.088Z,98651.03
2023-01-30T07:08:08.868Z,98643.66
2023-01-30T07:10:36.084Z,98644.59
2023-01-30T07:13:03.669Z,98655.91
2023-01-30T07:15:30.818Z,98653.97
2023-01-30T07:17:57.484Z,98656.19
2023-01-30T07:20:24.456Z,98650.28
2023-01-30T07:22:55.801Z,98653.41
2023-01-30T07:25:24.815Z,98654.44
2023-01-30T07:27:53.132Z,98654.25
2023-01-30T07:30:20.118Z,98646.44
2023-01-30T07:32:55.989Z,98651.75
2023-01-30T07:35:23.621Z,98634.63
2023-01-30T07:37:51.327Z,98632.69
2023-01-30T07:40:19.571Z,98631.97
2023-01-30T07:43:00.042Z,98637.91
2023-01-30T07:45:34.773Z,98631.28
2023-01-30T07:48:01.345Z,98635.59
2023-01-30T07:50:28.053Z,98638.63
2023-01-30T07:52:54.660Z,98632.34
2023-01-30T07:55:21.523Z,98622.09
2023-01-30T07:57:48.247Z,98629.22
2023-01-30T08:00:15.940Z,98622.00
2023-01-30T08:02:42.768Z,98615.22
2023-01-30T08:05:09.765Z,98622.34
2023-01-30T08:07:36.523Z,98608.59
2023-01-30T08:10:03.954Z,98612.19
2023-01-30T08:12:30.634Z,98594.31
2023-01-30T08:14:57.219Z,98611.56
2023-01-30T08:17:23.867Z,98608.66
2023-01-30T08:19:50.490Z,98610.34
2023-01-30T08:22:17.639Z,98608.69
2023-01-30T08:24:44.254Z,98609.25
2023-01-30T08:27:11.002Z,98598.09
2023-01-30T08:29:37.671Z,98607.38
2023-01-30T08:32:04.407Z,98617.69
2023-01-30T08:34:31.195Z,98605.78
2023-01-30T08:36:57.759Z,98621.28
2023-01-30T08:39:24.341Z,98612.59
2023-01-30T08:41:50.936Z,98624.56
2023-01-30T08:44:17.537Z,98629.72
2023-01-30T08:46:44.215Z,98628.94
2023-01-30T08:49:11.669Z,98623.47
2023-01-30T08:51:38.502Z,98613.06
2023-01-30T08:54:07.598Z,98620.53
2023-01-30T08:56:34.902Z,98618.22
2023-01-30T08:59:01.679Z,98604.72
2023-01-30T09:01:28.301Z,98607.31
2023-01-30T09:03:54.873Z,98603.81
2023-01-30T09:06:21.504Z,98598.63
2023-01-30T09:08:48.103Z,98599.31
2023-01-30T09:11:14.888Z,98589.63
2023-01-30T09:13:43.636Z,98585.72
2023-01-30T09:16:11.674Z,98578.34
2023-01-30T09:18:42.418Z,98572.06
2023-01-30T09:21:11.123Z,98568.72
2023-01-30T09:23:38.468Z,98566.16
2023-01-30T09:26:06.039Z,98563.38
2023-01-30T09:28:33.621Z,98556.38
2023-01-30T09:31:01.379Z,98560.91
2023-01-30T09:33:28.527Z,98551.72
2023-01-30T09:35:56.405Z,98547.59
2023-01-30T09:38:23.046Z,98551.56
2023-01-30T09:40:55.728Z,98542.28
2023-01-30T09:43:47.419Z,98544.06
2023-01-30T09:46:24.307Z,98541.03
2023-01-30T09:48:58.046Z,98542.47
2023-01-30T09:51:35.175Z,98523.53
2023-01-30T09:54:24.588Z,98527.22
2023-01-30T09:57:20.865Z,98530.16
2023-01-30T09:59:56.085Z,98528.78
2023-01-30T10:02:31.659Z,98522.09
2023-01-30T10:05:02.100Z,98515.59
2023-01-30T10:07:43.038Z,98509.16
2023-01-30T10:10:18.727Z,98501.75
2023-01-30T10:13:04.099Z,98494.81
2023-01-30T10:16:13.211Z,98494.44
2023-01-30T10:18:56.016Z,98480.16
2023-01-30T10:21:44.477Z,98480.53
2023-01-30T10:24:46.706Z,98474.28
2023-01-30T10:27:16.824Z,98467.59
2023-01-30T10:29:49.127Z,98456.19
2023-01-30T10:32:18.463Z,98455.38
2023-01-30T10:34:52.411Z,98447.56
2023-01-30T10:37:26.579Z,98446.66
2023-01-30T10:40:05.844Z,98448.56
2023-01-30T10:42:55.665Z,98439.91
2023-01-30T10:45:30.013Z,98416.13
2023-01-30T10:48:24.678Z,98431.41
2023-01-30T10:51:05.760Z,98427.50
2023-01-30T10:53:50.722Z,98426.38
2023-01-30T10:56:25.738Z,98415.13
2023-01-30T10:59:10.451Z,98430.69
2023-01-30T11:01:57.357Z,98409.00
2023-01-30T11:04:48.875Z,98406.50
2023-01-30T11:07:15.603Z,98404.97
2023-01-30T11:09:44.031Z,98396.47
2023-01-30T11:12:11.414Z,98393.50
2023-01-30T11:14:58.796Z,98379.06
2023-01-30T11:17:45.353Z,98388.59
2023-01-30T11:20:16.599Z,98387.47
2023-01-30T11:22:52.427Z,98378.75
2023-01-30T11:25:22.928Z,98380.69
2023-01-30T11:28:05.375Z,98368.66
2023-01-30T11:30:36.389Z,98358.13
2023-01-30T11:33:17.945Z,98350.13
2023-01-30T11:35:44.461Z,98346.31
2023-01-30T11:38:22.740Z,98345.75
2023-01-30T11:40:49.357Z,98336.91
2023-01-30T11:43:15.985Z,98324.97
2023-01-30T11:45:48.945Z,98328.34
2023-01-30T11:48:33.741Z,98323.84
2023-01-30T11:51:11.132Z,98313.47
2023-01-30T11:53:47.066Z,98317.53
2023-01-30T11:56:39.927Z,98305.44
2023-01-30T11:59:20.611Z,98303.88
2023-01-30T12:01:47.276Z,98298.56
2023-01-30T12:04:14.310Z,98299.44
2023-01-30T12:06:43.216Z,98298.19
2023-01-30T12:09:33.667Z,98293.94
2023-01-30T12:12:00.418Z,98282.03
2023-01-30T12:14:34.822Z,98279.19
2023-01-30T12:17:22.486Z,98282.44
2023-01-30T12:20:17.448Z,98280.75
2023-01-30T12:23:15.116Z,98237.53
2023-01-30T12:25:51.508Z,98262.19
2023-01-30T12:28:43.926Z,98266.94
2023-01-30T12:31:24.711Z,98261.84
2023-01-30T12:33:51.327Z,98252.75
2023-01-30T12:36:32.097Z,98258.94
2023-01-30T12:39:13.985Z,98263.31
2023-01-30T12:44:45.616Z,98254.66
2023-01-30T12:47:12.136Z,98258.13
2023-01-30T12:50:01.836Z,98242.56
2023-01-30T12:52:47.145Z,98241.75
2023-01-30T12:55:50.580Z,98242.59
2023-01-30T12:58:38.954Z,98239.34
2023-01-30T13:01:29.563Z,98230.38
2023-01-30T13:04:19.794Z,98227.84
2023-01-30T13:07:08.523Z,98229.53
2023-01-30T13:10:02.707Z,98226.28
2023-01-30T13:12:45.165Z,98230.34
2023-01-30T13:15:20.752Z,98226.03
2023-01-30T13:17:55.535Z,98226.03
2023-01-30T13:20:46.539Z,98230.50
2023-01-30T13:23:18.570Z,98219.13
2023-01-30T13:25:59.051Z,98211.84
2023-01-30T13:28:42.637Z,98216.50
2023-01-30T13:31:14.442Z,98213.41
2023-01-30T13:33:47.200Z,98214.53
2023-01-30T13:36:39.705Z,98196.72
2023-01-30T13:39:13.249Z,98206.53
2023-01-30T13:41:46.120Z,98197.13
2023-01-30T13:44:21.506Z,98199.94
2023-01-30T13:46:51.622Z,98206.78
2023-01-30T13:49:42.411Z,98201.31
2023-01-30T13:52:41.951Z,98197.00
2023-01-30T13:55:28.856Z,98196.56
2023-01-30T13:58:08.377Z,98183.41
2023-01-30T14:00:36.164Z,98183.66
2023-01-30T14:03:05.814Z,98190.53
2023-01-30T14:05:50.884Z,98186.47
2023-01-30T14:08:23.010Z,98179.72
2023-01-30T14:10:50.393Z,98184.63
2023-01-30T14:13:18.059Z,98182.78
2023-01-30T14:15:55.285Z,98182.53
2023-01-30T14:18:28.679Z,98178.47
2023-01-30T14:21:24.675Z,98178.63
2023-01-30T14:23:57.604Z,98164.72
2023-01-30T14:26:50.599Z,98174.41
2023-01-30T14:29:38.814Z,98170.75
2023-01-30T14:32:14.751Z,98165.56
2023-01-30T14:34:48.538Z,98167.94
2023-01-30T14:37:46.752Z,98165.84
2023-01-30T14:40:22.170Z,98168.63
2023-01-30T14:43:42.506Z,98169.34
2023-01-30T14:46:18.120Z,98157.41
2023-01-30T14:48:53.602Z,98164.84
2023-01-30T14:51:36.641Z,98153.63
2023-01-30T14:54:20.587Z,98161.19
2023-01-30T14:56:50.969Z,98157.00
2023-01-30T14:59:17.553Z,98156.47
2023-01-30T15:01:54.143Z,98154.03
2023-01-30T15:04:21.625Z,98137.06
2023-01-30T15:06:49.678Z,98147.06
2023-01-30T15:09:24.815Z,98138.63
2023-01-30T15:12:04.962Z,98143.41
2023-01-30T15:15:07.601Z,98146.63
2023-01-30T15:17:37.168Z,98147.72
2023-01-30T15:20:15.807Z,98144.94
2023-01-30T15:23:04.972Z,98145.22
2023-01-30T15:26:07.677Z,98132.44
2023-01-30T15:28:34.347Z,98149.41
2023-01-30T15:31:22.439Z,98153.31
2023-01-30T15:33:51.336Z,98144.34
2023-01-30T15:36:25.979Z,98154.56
2023-01-30T15:39:03.277Z,98150.34
2023-01-30T15:41:41.102Z,98148.78
2023-01-30T15:44:31.493Z,98147.38
2023-01-30T15:47:22.094Z,98150.03
2023-01-30T15:49:57.100Z,98153.25
2023-01-30T15:52:37.337Z,98146.78
2023-01-30T15:55:04.667Z,98146.19
2023-01-30T15:57:38.671Z,98144.22
2023-01-30T16:00:11.610Z,98140.97
2023-01-30T16:02:38.391Z,98134.13
2023-01-30T16:05:18.289Z,98136.22
2023-01-30T16:07:46.642Z,98136.63
2023-01-30T16:10:16.288Z,98136.88
2023-01-30T16:12:43.645Z,98131.13
2023-01-30T16:15:19.988Z,98134.44
2023-01-30T16:18:22.622Z,98134.13
2023-01-30T16:21:02.672Z,98128.22
2023-01-30T16:24:20.116Z,98133.34
2023-01-30T16:26:50.376Z,98131.09
2023-01-30T16:29:24.153Z,98141.41
2023-01-30T16:31:52.760Z,98136.75
2023-01-30T16:34:36.841Z,98141.50
2023-01-30T16:37:07.822Z,98136.25
2023-01-30T16:39:36.887Z,98135.13
2023-01-30T16:42:21.821Z,98129.09
2023-01-30T16:44:48.428Z,98130.78
2023-01-30T16:47:34.679Z,98115.50
2023-01-30T16:50:01.475Z,98122.78
2023-01-30T16:52:44.241Z,98123.28
2023-01-30T16:55:22.713Z,98119.66
2023-01-30T16:58:02.658Z,98118.16
2023-01-30T17:00:35.782Z,98124.03
2023-01-30T17:03:05.650Z,98113.22
2023-01-30T17:05:40.742Z,98111.69
2023-01-30T17:08:40.059Z,98107.72
2023-01-30T17:11:06.778Z,98097.72
2023-01-30T17:13:42.449Z,98103.31
2023-01-30T17:16:24.207Z,98099.53
2023-01-30T17:18:54.893Z,98096.69
2023-01-30T17:21:23.803Z,98100.69
2023-01-30T17:24:00.842Z,98091.31
2023-01-30T17:26:28.522Z,98083.72
2023-01-30T17:28:55.164Z,98086.63
2023-01-30T17:31:22.195Z,98087.34
2023-01-30T17:33:48.859Z,98088.22
2023-01-30T17:36:22.419Z,98061.50
2023-01-30T17:38:51.114Z,98076.78
2023-01-30T17:41:30.844Z,98088.50
2023-01-30T17:43:58.188Z,98070.53
2023-01-30T17:46:40.109Z,98082.97
2023-01-30T17:49:09.652Z,98082.34
2023-01-30T17:51:36.195Z,98076.88
2023-01-30T17:54:02.902Z,98076.13
2023-01-30T17:56:38.051Z,98073.00
2023-01-30T17:59:08.696Z,98074.69
2023-01-30T18:01:35.361Z,98066.03
2023-01-30T18:04:02.015Z,98064.72
2023-01-30T18:06:31.978Z,98065.56
2023-01-30T18:08:58.641Z,98052.56
2023-01-30T18:11:25.272Z,98051.72
2023-01-30T18:13:52.244Z,98021.63
2023-01-30T18:16:28.892Z,98050.88
2023-01-30T18:18:55.505Z,98046.28
2023-01-30T18:21:22.286Z,98039.06
2023-01-30T18:23:50.085Z,98044.50
2023-01-30T18:26:18.360Z,98045.34
2023-01-30T18:28:45.514Z,98034.25
2023-01-30T18:31:12.624Z,98041.50
2023-01-30T18:33:41.141Z,98034.50
2023-01-30T18:36:10.229Z,98034.75
2023-01-30T18:38:36.802Z,98031.38
2023-01-30T18:41:15.511Z,98030.53
2023-01-30T18:43:43.250Z,98022.94
2023-01-30T18:46:13.247Z,98022.94
2023-01-30T18:48:40.099Z,98022.50
2023-01-30T18:51:08.035Z,98027.66
2023-01-30T18:53:35.470Z,98030.94
2023-01-30T18:56:02.480Z,98035.63
2023-01-30T18:58:31.530Z,98010.72
2023-01-30T19:00:59.031Z,98020.00
2023-01-30T19:03:26.626Z,98016.25
2023-01-30T19:05:53.511Z,98015.28
2023-01-30T19:08:20.184Z,98006.25
2023-01-30T19:10:46.747Z,98010.47
2023-01-30T19:13:31.885Z,98009.63
2023-01-30T19:16:03.782Z,98000.63
2023-01-30T19:18:31.847Z,98012.75
2023-01-30T19:21:02.114Z,98009.25
2023-01-30T19:23:30.467Z,98003.38
2023-01-30T19:25:59.536Z,98002.28
2023-01-30T19:28:27.172Z,98003.13
2023-01-30T19:30:53.894Z,98000.72
2023-01-30T19:33:21.193Z,97994.81
2023-01-30T19:35:47.933Z,98005.91
2023-01-30T19:38:14.915Z,98004.47
2023-01-30T19:40:46.337Z,98005.09
2023-01-30T19:43:13.622Z,98001.81
2023-01-30T19:45:42.509Z,97993.88
2023-01-30T19:48:11.021Z,97981.00
2023-01-30T19:50:37.939Z,97978.47
2023-01-30T19:53:04.873Z,97982.31
2023-01-30T19:55:37.795Z,97990.63
2023-01-30T19:58:04.881Z,97987.75
2023-01-30T20:00:31.638Z,97979.19
2023-01-30T20:02:58.368Z,97971.13
2023-01-30T20:05:25.346Z,97962.34
2023-01-30T20:07:51.949Z,97967.88
2023-01-30T20:10:18.963Z,97973.78
2023-01-30T20:12:45.828Z,97976.53
2023-01-30T20:15:12.445Z,97965.25
2023-01-30T20:17:39.167Z,97975.56
2023-01-30T20:20:06.911Z,97968.50
2023-01-30T20:22:33.861Z,97974.28
2023-01-30T20:25:00.448Z,97979.69
2023-01-30T20:27:27.347Z,97972.09
2023-01-30T20:29:53.927Z,97971.41
2023-01-30T20:32:20.661Z,97967.91
2023-01-30T20:34:47.289Z,97968.00
2023-01-30T20:37:13.923Z,97964.75
2023-01-30T20:39:40.900Z,97959.72
2023-01-30T20:42:07.597Z,97962.22
2023-01-30T20:44:35.670Z,97963.22
2023-01-30T20:47:02.695Z,97945.75
2023-01-30T20:49:29.335Z,97961.63
2023-01-30T20:51:55.953Z,97948.41
2023-01-30T20:54:23.427Z,97920.38
2023-01-30T20:56:52.921Z,97928.31
2023-01-30T20:59:24.020Z,97940.34
2023-01-30T21:01:52.000Z,97934.69
2023-01-30T21:04:19.703Z,97926.75
2023-01-30T21:06:47.136Z,97932.88
2023-01-30T21:09:22.555Z,97932.28
2023-01-30T21:11:51.157Z,97943.00
2023-01-30T21:14:18.188Z,97934.31
2023-01-30T21:16:45.250Z,97927.00
2023-01-30T21:19:15.155Z,97924.59
2023-01-30T21:22:07.474Z,97918.09
2023-01-30T21:24:34.016Z,97919.91
2023-01-30T21:27:00.620Z,97921.09
2023-01-30T21:29:28.681Z,97906.69
2023-01-30T21:31:57.231Z,97923.41
2023-01-30T21:34:24.473Z,97913.03
2023-01-30T21:37:09.565Z,97912.44
2023-01-30T21:39:54.735Z,97913.88
2023-01-30T21:42:40.463Z,97921.94
2023-01-30T21:45:07.628Z,97917.22
2023-01-30T21:47:34.260Z,97918.47
2023-01-30T21:50:00.814Z,97917.38
2023-01-30T21:52:27.496Z,97915.69
2023-01-30T21:54:54.130Z,97912.53
2023-01-30T21:57:20.701Z,97904.59
2023-01-30T21:59:47.361Z,97907.50
2023-01-30T22:02:13.928Z,97907.84
2023-01-30T22:04:40.534Z,97909.19
2023-01-30T22:07:07.133Z,97906.41
2023-01-30T22:09:33.830Z,97922.75
2023-01-30T22:12:00.389Z,97911.22
2023-01-30T22:14:27.057Z,97914.59
2023-01-30T22:16:53.713Z,97904.25
2023-01-30T22:19:20.415Z,97913.78
2023-01-30T22:21:47.065Z,97913.88
2023-01-30T22:24:13.719Z,97915.06
2023-01-30T22:26:40.838Z,97905.13
2023-01-30T22:29:07.745Z,97913.03
2023-01-30T22:31:36.565Z,97906.75
2023-01-30T22:34:04.378Z,97900.03
2023-01-30T22:36:33.088Z,97906.28
2023-01-30T22:38:59.870Z,97898.69
2023-01-30T22:41:28.297Z,97897.16
2023-01-30T22:43:56.948Z,97898.22
2023-01-30T22:46:30.153Z,97900.97
2023-01-30T22:48:57.583Z,97914.19
2023-01-30T22:51:26.717Z,97912.28
2023-01-30T22:53:56.311Z,97913.59
2023-01-30T22:56:27.641Z,97911.19
2023-01-30T22:58:54.768Z,97903.09
2023-01-30T23:01:22.954Z,97905.38
2023-01-30T23:03:55.299Z,97909.47
2023-01-30T23:06:22.839Z,97913.88
2023-01-30T23:08:49.821Z,97914.34
2023-01-30T23:11:19.699Z,97912.03
2023-01-30T23:13:49.236Z,97899.28
2023-01-30T23:16:17.873Z,97900.84
2023-01-30T23:18:56.790Z,97905.19
2023-01-30T23:21:29.019Z,97889.78
2023-01-30T23:23:57.753Z,97898.66
2023-01-30T23:26:26.510Z,97889.69
2023-01-30T23:28:53.478Z,97895.38
2023-01-30T23:31:23.020Z,97891.13
2023-01-30T23:33:54.679Z,97886.13
2023-01-30T23:36:21.784Z,97876.66
2023-01-30T23:38:50.267Z,97880.25
2023-01-30T23:41:19.963Z,97877.22
2023-01-30T23:43:47.832Z,97867.00
2023-01-30T23:46:17.873Z,97871.28
2023-01-30T23:48:45.998Z,97862.03
2023-01-30T23:51:14.423Z,97871.16
2023-01-30T23:53:41.343Z,97864.81
2023-01-30T23:56:08.242Z,97855.91
2023-01-30T23:58:35.562Z,97859.25
